sensor_id;sensor_type;location;lat;lon;timestamp;pressure;altitude;pressure_sealevel;temperature;humidity
76730;BME280;65653;53.106;18.046;2023-03-31T00:02:00;99722.10;;;8.48;97.25
76730;BME280;65653;53.106;18.046;2023-03-31T00:04:27;99720.57;;;8.47;97.02
76730;BME280;65653;53.106;18.046;2023-03-31T00:06:56;99718.30;;;8.45;97.04
76730;BME280;65653;53.106;18.046;2023-03-31T00:09:22;99712.39;;;8.43;97.05
76730;BME280;65653;53.106;18.046;2023-03-31T00:11:49;99714.98;;;8.40;97.08
76730;BME280;65653;53.106;18.046;2023-03-31T00:14:16;99711.38;;;8.40;97.15
76730;BME280;65653;53.106;18.046;2023-03-31T00:16:43;99707.13;;;8.38;97.26
76730;BME280;65653;53.106;18.046;2023-03-31T00:19:10;99704.93;;;8.37;97.36
76730;BME280;65653;53.106;18.046;2023-03-31T00:21:44;99707.73;;;8.37;97.44
76730;BME280;65653;53.106;18.046;2023-03-31T00:24:11;99706.83;;;8.38;97.33
76730;BME280;65653;53.106;18.046;2023-03-31T00:26:37;99702.55;;;8.38;97.37
76730;BME280;65653;53.106;18.046;2023-03-31T00:29:05;99689.18;;;8.39;97.43
76730;BME280;65653;53.106;18.046;2023-03-31T00:31:32;99687.86;;;8.39;97.50
76730;BME280;65653;53.106;18.046;2023-03-31T00:33:58;99696.67;;;8.41;97.51
76730;BME280;65653;53.106;18.046;2023-03-31T00:36:25;99692.48;;;8.43;97.45
76730;BME280;65653;53.106;18.046;2023-03-31T00:39:00;99694.21;;;8.45;97.49
76730;BME280;65653;53.106;18.046;2023-03-31T00:41:28;99694.38;;;8.46;97.48
76730;BME280;65653;53.106;18.046;2023-03-31T00:44:13;99696.28;;;8.47;97.37
76730;BME280;65653;53.106;18.046;2023-03-31T00:46:51;99697.01;;;8.49;97.33
76730;BME280;65653;53.106;18.046;2023-03-31T00:49:27;99693.48;;;8.49;97.40
76730;BME280;65653;53.106;18.046;2023-03-31T00:52:06;99694.70;;;8.48;97.38
76730;BME280;65653;53.106;18.046;2023-03-31T00:54:35;99688.39;;;8.48;97.42
76730;BME280;65653;53.106;18.046;2023-03-31T00:57:04;99687.23;;;8.49;97.48
76730;BME280;65653;53.106;18.046;2023-03-31T00:59:45;99686.69;;;8.51;97.36
76730;BME280;65653;53.106;18.046;2023-03-31T01:02:13;99680.61;;;8.53;97.37
76730;BME280;65653;53.106;18.046;2023-03-31T01:04:45;99672.36;;;8.54;97.34
76730;BME280;65653;53.106;18.046;2023-03-31T01:07:34;99667.48;;;8.55;97.32
76730;BME280;65653;53.106;18.046;2023-03-31T01:10:03;99660.86;;;8.55;97.27
76730;BME280;65653;53.106;18.046;2023-03-31T01:12:32;99659.58;;;8.54;97.34
76730;BME280;65653;53.106;18.046;2023-03-31T01:14:58;99657.52;;;8.55;97.29
76730;BME280;65653;53.106;18.046;2023-03-31T01:17:26;99658.14;;;8.55;97.26
76730;BME280;65653;53.106;18.046;2023-03-31T01:36:43;99643.58;;;8.43;97.50
76730;BME280;65653;53.106;18.046;2023-03-31T01:41:48;99636.75;;;8.29;97.71
76730;BME280;65653;53.106;18.046;2023-03-31T01:56:15;99634.37;;;8.15;98.47
76730;BME280;65653;53.106;18.046;2023-03-31T01:58:59;99629.04;;;8.13;98.60
76730;BME280;65653;53.106;18.046;2023-03-31T02:01:41;99631.38;;;8.09;98.65
76730;BME280;65653;53.106;18.046;2023-03-31T02:04:15;99628.38;;;8.04;98.57
76730;BME280;65653;53.106;18.046;2023-03-31T02:06:46;99631.21;;;7.99;98.62
76730;BME280;65653;53.106;18.046;2023-03-31T02:09:20;99627.08;;;7.96;98.68
76730;BME280;65653;53.106;18.046;2023-03-31T02:11:48;99624.84;;;7.91;98.71
76730;BME280;65653;53.106;18.046;2023-03-31T02:14:20;99626.92;;;7.87;98.76
76730;BME280;65653;53.106;18.046;2023-03-31T02:16:50;99630.23;;;7.83;98.83
76730;BME280;65653;53.106;18.046;2023-03-31T02:19:20;99627.73;;;7.78;98.77
76730;BME280;65653;53.106;18.046;2023-03-31T02:21:48;99629.36;;;7.75;98.82
76730;BME280;65653;53.106;18.046;2023-03-31T02:24:18;99631.81;;;7.70;98.67
76730;BME280;65653;53.106;18.046;2023-03-31T02:29:41;99631.55;;;7.59;98.77
76730;BME280;65653;53.106;18.046;2023-03-31T02:34:45;99636.35;;;7.51;98.81
76730;BME280;65653;53.106;18.046;2023-03-31T02:37:12;99635.30;;;7.48;98.91
76730;BME280;65653;53.106;18.046;2023-03-31T02:39:39;99633.94;;;7.46;98.92
76730;BME280;65653;53.106;18.046;2023-03-31T02:42:06;99630.24;;;7.42;98.94
76730;BME280;65653;53.106;18.046;2023-03-31T02:44:34;99631.95;;;7.38;98.86
76730;BME280;65653;53.106;18.046;2023-03-31T02:47:02;99632.61;;;7.35;99.01
76730;BME280;65653;53.106;18.046;2023-03-31T02:49:30;99635.67;;;7.31;99.08
76730;BME280;65653;53.106;18.046;2023-03-31T02:55:09;99629.39;;;7.22;99.19
76730;BME280;65653;53.106;18.046;2023-03-31T02:58:03;99627.48;;;7.18;99.28
76730;BME280;65653;53.106;18.046;2023-03-31T03:11:50;99612.88;;;7.00;99.50
76730;BME280;65653;53.106;18.046;2023-03-31T03:14:33;99609.33;;;7.01;99.52
76730;BME280;65653;53.106;18.046;2023-03-31T03:17:10;99612.36;;;6.97;99.45
76730;BME280;65653;53.106;18.046;2023-03-31T03:19:40;99609.98;;;6.95;99.39
76730;BME280;65653;53.106;18.046;2023-03-31T03:22:06;99609.52;;;6.96;99.41
76730;BME280;65653;53.106;18.046;2023-03-31T03:24:32;99606.21;;;6.96;99.44
76730;BME280;65653;53.106;18.046;2023-03-31T03:26:59;99606.93;;;6.99;99.26
76730;BME280;65653;53.106;18.046;2023-03-31T03:29:26;99610.94;;;7.00;99.19
76730;BME280;65653;53.106;18.046;2023-03-31T03:31:53;99615.29;;;6.99;99.08
76730;BME280;65653;53.106;18.046;2023-03-31T03:34:19;99613.55;;;6.99;98.92
76730;BME280;65653;53.106;18.046;2023-03-31T03:36:45;99609.02;;;6.97;98.87
76730;BME280;65653;53.106;18.046;2023-03-31T03:39:11;99602.27;;;6.95;98.84
76730;BME280;65653;53.106;18.046;2023-03-31T03:41:38;99601.34;;;6.94;98.73
76730;BME280;65653;53.106;18.046;2023-03-31T03:44:04;99600.20;;;6.93;98.73
76730;BME280;65653;53.106;18.046;2023-03-31T03:46:30;99600.75;;;6.92;98.78
76730;BME280;65653;53.106;18.046;2023-03-31T03:48:56;99598.59;;;6.90;98.87
76730;BME280;65653;53.106;18.046;2023-03-31T03:51:22;99600.95;;;6.89;98.73
76730;BME280;65653;53.106;18.046;2023-03-31T03:53:48;99599.38;;;6.90;98.83
76730;BME280;65653;53.106;18.046;2023-03-31T03:56:14;99604.30;;;6.93;98.63
76730;BME280;65653;53.106;18.046;2023-03-31T03:58:40;99603.89;;;6.94;98.55
76730;BME280;65653;53.106;18.046;2023-03-31T04:01:05;99605.92;;;6.97;98.48
76730;BME280;65653;53.106;18.046;2023-03-31T04:03:31;99599.81;;;6.98;98.31
76730;BME280;65653;53.106;18.046;2023-03-31T04:05:58;99599.31;;;6.98;98.15
76730;BME280;65653;53.106;18.046;2023-03-31T04:08:24;99592.42;;;6.97;98.14
76730;BME280;65653;53.106;18.046;2023-03-31T04:10:50;99591.19;;;6.97;98.18
76730;BME280;65653;53.106;18.046;2023-03-31T04:13:16;99586.31;;;6.96;98.15
76730;BME280;65653;53.106;18.046;2023-03-31T04:15:43;99584.92;;;6.96;98.11
76730;BME280;65653;53.106;18.046;2023-03-31T04:18:10;99581.02;;;6.95;98.15
76730;BME280;65653;53.106;18.046;2023-03-31T04:20:50;99581.06;;;6.95;98.08
76730;BME280;65653;53.106;18.046;2023-03-31T04:23:33;99581.95;;;6.95;98.22
76730;BME280;65653;53.106;18.046;2023-03-31T04:25:59;99579.23;;;6.96;98.17
76730;BME280;65653;53.106;18.046;2023-03-31T04:28:25;99577.16;;;6.96;98.18
76730;BME280;65653;53.106;18.046;2023-03-31T04:30:52;99578.36;;;6.97;98.13
76730;BME280;65653;53.106;18.046;2023-03-31T04:33:19;99577.47;;;7.00;98.17
76730;BME280;65653;53.106;18.046;2023-03-31T04:35:46;99577.42;;;7.00;98.16
76730;BME280;65653;53.106;18.046;2023-03-31T04:38:16;99574.09;;;7.01;98.18
76730;BME280;65653;53.106;18.046;2023-03-31T04:40:46;99574.21;;;7.04;98.14
76730;BME280;65653;53.106;18.046;2023-03-31T04:43:13;99571.05;;;7.07;98.19
76730;BME280;65653;53.106;18.046;2023-03-31T04:45:39;99569.09;;;7.09;98.21
76730;BME280;65653;53.106;18.046;2023-03-31T04:48:05;99568.75;;;7.12;98.16
76730;BME280;65653;53.106;18.046;2023-03-31T04:50:31;99569.10;;;7.15;98.16
76730;BME280;65653;53.106;18.046;2023-03-31T04:52:57;99567.15;;;7.17;98.17
76730;BME280;65653;53.106;18.046;2023-03-31T04:55:23;99567.92;;;7.20;98.10
76730;BME280;65653;53.106;18.046;2023-03-31T04:57:50;99569.39;;;7.22;98.08
76730;BME280;65653;53.106;18.046;2023-03-31T05:00:17;99567.52;;;7.25;98.10
76730;BME280;65653;53.106;18.046;2023-03-31T05:02:43;99562.45;;;7.29;98.12
76730;BME280;65653;53.106;18.046;2023-03-31T05:05:12;99557.74;;;7.33;98.08
76730;BME280;65653;53.106;18.046;2023-03-31T05:07:39;99558.55;;;7.36;98.05
76730;BME280;65653;53.106;18.046;2023-03-31T05:10:05;99555.50;;;7.39;97.96
76730;BME280;65653;53.106;18.046;2023-03-31T05:12:35;99553.80;;;7.40;97.87
76730;BME280;65653;53.106;18.046;2023-03-31T05:15:02;99554.42;;;7.44;97.81
76730;BME280;65653;53.106;18.046;2023-03-31T05:17:33;99548.91;;;7.48;97.74
76730;BME280;65653;53.106;18.046;2023-03-31T05:20:00;99544.02;;;7.52;97.62
76730;BME280;65653;53.106;18.046;2023-03-31T05:22:27;99542.89;;;7.56;97.44
76730;BME280;65653;53.106;18.046;2023-03-31T05:24:52;99542.49;;;7.60;97.45
76730;BME280;65653;53.106;18.046;2023-03-31T05:27:18;99539.06;;;7.62;97.29
76730;BME280;65653;53.106;18.046;2023-03-31T05:29:46;99539.13;;;7.66;97.09
76730;BME280;65653;53.106;18.046;2023-03-31T05:32:12;99536.38;;;7.68;97.20
76730;BME280;65653;53.106;18.046;2023-03-31T05:34:38;99537.86;;;7.70;97.08
76730;BME280;65653;53.106;18.046;2023-03-31T05:37:04;99539.97;;;7.73;96.99
76730;BME280;65653;53.106;18.046;2023-03-31T05:39:29;99536.64;;;7.79;96.90
76730;BME280;65653;53.106;18.046;2023-03-31T05:41:58;99537.69;;;7.87;96.68
76730;BME280;65653;53.106;18.046;2023-03-31T05:44:24;99535.75;;;7.98;96.46
76730;BME280;65653;53.106;18.046;2023-03-31T05:46:52;99534.31;;;8.06;96.25
76730;BME280;65653;53.106;18.046;2023-03-31T05:49:18;99529.67;;;8.11;95.75
76730;BME280;65653;53.106;18.046;2023-03-31T05:51:45;99526.77;;;8.16;95.60
76730;BME280;65653;53.106;18.046;2023-03-31T05:54:11;99525.58;;;8.18;95.47
76730;BME280;65653;53.106;18.046;2023-03-31T05:56:37;99524.38;;;8.24;95.48
76730;BME280;65653;53.106;18.046;2023-03-31T05:59:04;99528.52;;;8.31;95.28
76730;BME280;65653;53.106;18.046;2023-03-31T06:01:30;99526.86;;;8.39;94.98
76730;BME280;65653;53.106;18.046;2023-03-31T06:03:56;99522.98;;;8.42;94.83
76730;BME280;65653;53.106;18.046;2023-03-31T06:06:22;99520.73;;;8.43;94.63
76730;BME280;65653;53.106;18.046;2023-03-31T06:08:49;99519.66;;;8.42;94.55
76730;BME280;65653;53.106;18.046;2023-03-31T06:11:18;99517.29;;;8.45;94.47
76730;BME280;65653;53.106;18.046;2023-03-31T06:13:44;99523.99;;;8.53;94.33
76730;BME280;65653;53.106;18.046;2023-03-31T06:16:12;99518.11;;;8.65;94.03
76730;BME280;65653;53.106;18.046;2023-03-31T06:18:39;99522.41;;;8.74;93.71
76730;BME280;65653;53.106;18.046;2023-03-31T06:21:05;99516.66;;;8.77;93.40
76730;BME280;65653;53.106;18.046;2023-03-31T06:23:32;99518.17;;;8.74;93.23
76730;BME280;65653;53.106;18.046;2023-03-31T06:26:03;99515.42;;;8.78;93.27
76730;BME280;65653;53.106;18.046;2023-03-31T06:28:31;99512.92;;;8.84;93.03
76730;BME280;65653;53.106;18.046;2023-03-31T06:31:00;99509.89;;;8.92;92.79
76730;BME280;65653;53.106;18.046;2023-03-31T06:33:26;99513.52;;;8.99;92.42
76730;BME280;65653;53.106;18.046;2023-03-31T06:35:54;99509.77;;;9.07;92.21
76730;BME280;65653;53.106;18.046;2023-03-31T06:38:20;99506.13;;;9.15;92.20
76730;BME280;65653;53.106;18.046;2023-03-31T06:40:46;99505.88;;;9.21;91.68
76730;BME280;65653;53.106;18.046;2023-03-31T06:43:12;99506.31;;;9.28;91.24
76730;BME280;65653;53.106;18.046;2023-03-31T06:45:38;99502.22;;;9.38;91.05
76730;BME280;65653;53.106;18.046;2023-03-31T06:48:04;99502.52;;;9.47;90.91
76730;BME280;65653;53.106;18.046;2023-03-31T06:50:31;99503.61;;;9.56;90.63
76730;BME280;65653;53.106;18.046;2023-03-31T06:52:57;99501.82;;;9.63;90.30
76730;BME280;65653;53.106;18.046;2023-03-31T06:55:23;99502.71;;;9.70;90.13
76730;BME280;65653;53.106;18.046;2023-03-31T06:57:49;99503.44;;;9.77;89.79
76730;BME280;65653;53.106;18.046;2023-03-31T07:00:16;99507.27;;;9.84;89.46
76730;BME280;65653;53.106;18.046;2023-03-31T07:02:42;99504.41;;;9.89;89.25
76730;BME280;65653;53.106;18.046;2023-03-31T07:05:08;99501.79;;;9.99;88.90
76730;BME280;65653;53.106;18.046;2023-03-31T07:07:34;99503.92;;;10.05;88.60
76730;BME280;65653;53.106;18.046;2023-03-31T07:10:00;99498.46;;;10.10;88.44
76730;BME280;65653;53.106;18.046;2023-03-31T07:12:26;99496.64;;;10.19;88.20
76730;BME280;65653;53.106;18.046;2023-03-31T07:14:51;99503.38;;;10.20;88.25
76730;BME280;65653;53.106;18.046;2023-03-31T07:17:17;99506.27;;;10.18;87.49
76730;BME280;65653;53.106;18.046;2023-03-31T07:19:43;99508.77;;;10.19;87.37
76730;BME280;65653;53.106;18.046;2023-03-31T07:22:13;99506.82;;;10.21;87.28
76730;BME280;65653;53.106;18.046;2023-03-31T07:24:41;99508.50;;;10.23;87.26
76730;BME280;65653;53.106;18.046;2023-03-31T07:27:07;99505.23;;;10.32;87.44
76730;BME280;65653;53.106;18.046;2023-03-31T07:29:32;99503.44;;;10.38;87.01
76730;BME280;65653;53.106;18.046;2023-03-31T07:31:58;99498.36;;;10.46;86.49
76730;BME280;65653;53.106;18.046;2023-03-31T07:34:24;99504.23;;;10.55;85.85
76730;BME280;65653;53.106;18.046;2023-03-31T07:36:54;99496.65;;;10.70;85.41
76730;BME280;65653;53.106;18.046;2023-03-31T07:39:20;99497.33;;;10.79;84.97
76730;BME280;65653;53.106;18.046;2023-03-31T07:41:46;99499.55;;;10.79;83.97
76730;BME280;65653;53.106;18.046;2023-03-31T07:44:12;99496.27;;;10.83;84.08
76730;BME280;65653;53.106;18.046;2023-03-31T07:46:38;99493.30;;;10.99;83.85
76730;BME280;65653;53.106;18.046;2023-03-31T07:49:04;99491.17;;;11.12;82.73
76730;BME280;65653;53.106;18.046;2023-03-31T07:51:32;99479.55;;;11.19;82.41
76730;BME280;65653;53.106;18.046;2023-03-31T07:53:58;99476.19;;;11.37;81.91
76730;BME280;65653;53.106;18.046;2023-03-31T07:56:24;99472.55;;;11.50;81.48
76730;BME280;65653;53.106;18.046;2023-03-31T07:58:50;99469.83;;;11.64;81.19
76730;BME280;65653;53.106;18.046;2023-03-31T08:01:19;99457.66;;;11.71;79.99
76730;BME280;65653;53.106;18.046;2023-03-31T08:03:46;99455.89;;;11.81;79.25
76730;BME280;65653;53.106;18.046;2023-03-31T08:06:22;99453.73;;;11.97;78.99
76730;BME280;65653;53.106;18.046;2023-03-31T08:08:49;99455.83;;;12.20;78.14
76730;BME280;65653;53.106;18.046;2023-03-31T08:11:16;99455.27;;;12.20;76.92
76730;BME280;65653;53.106;18.046;2023-03-31T08:13:42;99457.31;;;12.27;76.93
76730;BME280;65653;53.106;18.046;2023-03-31T08:16:11;99452.06;;;12.31;76.10
76730;BME280;65653;53.106;18.046;2023-03-31T08:18:37;99449.54;;;12.30;75.97
76730;BME280;65653;53.106;18.046;2023-03-31T08:21:03;99445.42;;;12.48;75.76
76730;BME280;65653;53.106;18.046;2023-03-31T08:23:29;99445.98;;;12.60;74.57
76730;BME280;65653;53.106;18.046;2023-03-31T08:26:07;99437.23;;;12.74;74.44
76730;BME280;65653;53.106;18.046;2023-03-31T08:28:33;99434.00;;;12.98;73.56
76730;BME280;65653;53.106;18.046;2023-03-31T08:31:04;99424.13;;;13.19;73.08
76730;BME280;65653;53.106;18.046;2023-03-31T08:33:30;99413.98;;;13.49;71.45
76730;BME280;65653;53.106;18.046;2023-03-31T08:36:01;99414.85;;;13.58;70.72
76730;BME280;65653;53.106;18.046;2023-03-31T08:38:27;99408.67;;;13.70;70.13
76730;BME280;65653;53.106;18.046;2023-03-31T08:41:00;99417.78;;;13.85;69.85
76730;BME280;65653;53.106;18.046;2023-03-31T08:43:32;99422.67;;;13.84;69.75
76730;BME280;65653;53.106;18.046;2023-03-31T08:46:01;99424.66;;;13.83;69.64
76730;BME280;65653;53.106;18.046;2023-03-31T08:48:32;99422.09;;;13.82;70.09
76730;BME280;65653;53.106;18.046;2023-03-31T08:51:05;99420.71;;;13.72;69.90
76730;BME280;65653;53.106;18.046;2023-03-31T08:53:36;99417.99;;;13.64;70.00
76730;BME280;65653;53.106;18.046;2023-03-31T08:56:07;99416.71;;;13.76;69.81
76730;BME280;65653;53.106;18.046;2023-03-31T08:58:47;99421.25;;;13.66;69.53
76730;BME280;65653;53.106;18.046;2023-03-31T09:07:11;99412.86;;;13.63;69.68
76730;BME280;65653;53.106;18.046;2023-03-31T09:10:02;99414.99;;;13.49;70.58
76730;BME280;65653;53.106;18.046;2023-03-31T09:15:28;99408.02;;;13.56;70.20
76730;BME280;65653;53.106;18.046;2023-03-31T09:18:02;99403.45;;;13.55;69.85
76730;BME280;65653;53.106;18.046;2023-03-31T09:20:33;99408.27;;;13.54;69.43
76730;BME280;65653;53.106;18.046;2023-03-31T09:25:43;99397.96;;;13.92;68.93
76730;BME280;65653;53.106;18.046;2023-03-31T09:28:21;99393.05;;;14.32;68.05
76730;BME280;65653;53.106;18.046;2023-03-31T09:30:48;99391.63;;;14.95;65.91
76730;BME280;65653;53.106;18.046;2023-03-31T09:35:47;99385.52;;;15.03;65.08
76730;BME280;65653;53.106;18.046;2023-03-31T09:38:14;99385.27;;;15.06;64.53
76730;BME280;65653;53.106;18.046;2023-03-31T09:40:41;99381.58;;;15.13;64.45
76730;BME280;65653;53.106;18.046;2023-03-31T09:43:18;99377.81;;;14.77;65.39
76730;BME280;65653;53.106;18.046;2023-03-31T09:45:46;99373.27;;;15.99;61.56
76730;BME280;65653;53.106;18.046;2023-03-31T09:48:17;99373.17;;;16.18;61.60
76730;BME280;65653;53.106;18.046;2023-03-31T09:50:50;99369.95;;;16.58;59.46
76730;BME280;65653;53.106;18.046;2023-03-31T09:53:24;99367.81;;;15.94;61.81
76730;BME280;65653;53.106;18.046;2023-03-31T09:56:00;99372.50;;;15.43;63.16
76730;BME280;65653;53.106;18.046;2023-03-31T09:58:27;99369.52;;;15.82;62.68
76730;BME280;65653;53.106;18.046;2023-03-31T10:01:02;99369.40;;;16.63;60.32
76730;BME280;65653;53.106;18.046;2023-03-31T10:03:31;99364.73;;;17.73;58.81
76730;BME280;65653;53.106;18.046;2023-03-31T10:06:07;99351.40;;;20.21;50.96
76730;BME280;65653;53.106;18.046;2023-03-31T10:08:53;99348.07;;;20.82;48.16
76730;BME280;65653;53.106;18.046;2023-03-31T10:11:22;99349.04;;;20.99;47.44
76730;BME280;65653;53.106;18.046;2023-03-31T10:16:24;99343.06;;;18.76;52.74
76730;BME280;65653;53.106;18.046;2023-03-31T10:18:52;99341.79;;;17.93;55.02
76730;BME280;65653;53.106;18.046;2023-03-31T10:21:27;99346.86;;;17.27;56.89
76730;BME280;65653;53.106;18.046;2023-03-31T10:23:59;99336.73;;;16.59;58.83
76730;BME280;65653;53.106;18.046;2023-03-31T10:26:27;99338.66;;;16.31;59.39
76730;BME280;65653;53.106;18.046;2023-03-31T10:28:54;99334.55;;;16.36;59.86
76730;BME280;65653;53.106;18.046;2023-03-31T10:31:26;99336.64;;;16.21;59.78
76730;BME280;65653;53.106;18.046;2023-03-31T10:33:58;99333.27;;;15.84;60.05
76730;BME280;65653;53.106;18.046;2023-03-31T10:36:29;99333.38;;;15.42;61.26
76730;BME280;65653;53.106;18.046;2023-03-31T10:38:57;99337.19;;;15.14;61.74
76730;BME280;65653;53.106;18.046;2023-03-31T10:41:28;99331.84;;;15.23;62.17
76730;BME280;65653;53.106;18.046;2023-03-31T10:44:01;99327.83;;;15.80;60.76
76730;BME280;65653;53.106;18.046;2023-03-31T10:46:41;99324.59;;;15.91;59.48
76730;BME280;65653;53.106;18.046;2023-03-31T10:49:23;99321.22;;;16.55;57.83
76730;BME280;65653;53.106;18.046;2023-03-31T10:51:55;99319.86;;;16.93;56.49
76730;BME280;65653;53.106;18.046;2023-03-31T10:54:26;99313.55;;;16.82;56.99
76730;BME280;65653;53.106;18.046;2023-03-31T10:56:59;99309.36;;;16.77;56.97
76730;BME280;65653;53.106;18.046;2023-03-31T10:59:40;99303.69;;;17.06;55.56
76730;BME280;65653;53.106;18.046;2023-03-31T11:05:14;99299.92;;;17.45;54.09
76730;BME280;65653;53.106;18.046;2023-03-31T11:13:40;99291.06;;;17.88;53.33
76730;BME280;65653;53.106;18.046;2023-03-31T11:24:23;99264.34;;;21.43;44.37
76730;BME280;65653;53.106;18.046;2023-03-31T11:30:03;99264.39;;;19.53;48.53
76730;BME280;65653;53.106;18.046;2023-03-31T11:35:32;99260.53;;;18.35;51.83
76730;BME280;65653;53.106;18.046;2023-03-31T11:41:07;99246.52;;;17.65;53.75
76730;BME280;65653;53.106;18.046;2023-03-31T11:43:46;99237.25;;;17.72;53.04
76730;BME280;65653;53.106;18.046;2023-03-31T11:46:24;99236.23;;;19.01;50.32
76730;BME280;65653;53.106;18.046;2023-03-31T11:49:36;99232.34;;;19.11;48.95
76730;BME280;65653;53.106;18.046;2023-03-31T11:57:19;99220.09;;;18.21;51.30
76730;BME280;65653;53.106;18.046;2023-03-31T11:59:56;99219.33;;;19.07;49.40
76730;BME280;65653;53.106;18.046;2023-03-31T12:02:39;99216.59;;;20.27;46.13
76730;BME280;65653;53.106;18.046;2023-03-31T12:05:13;99207.60;;;21.48;43.31
76730;BME280;65653;53.106;18.046;2023-03-31T12:10:53;99199.16;;;20.68;43.96
76730;BME280;65653;53.106;18.046;2023-03-31T12:16:16;99189.64;;;20.42;43.67
76730;BME280;65653;53.106;18.046;2023-03-31T12:21:22;99191.30;;;19.37;45.44
76730;BME280;65653;53.106;18.046;2023-03-31T12:23:51;99184.41;;;18.66;47.17
76730;BME280;65653;53.106;18.046;2023-03-31T12:28:59;99185.20;;;17.92;49.05
76730;BME280;65653;53.106;18.046;2023-03-31T12:31:29;99187.42;;;17.36;50.31
76730;BME280;65653;53.106;18.046;2023-03-31T12:34:01;99188.87;;;16.91;51.68
76730;BME280;65653;53.106;18.046;2023-03-31T12:39:34;99185.93;;;16.33;53.94
76730;BME280;65653;53.106;18.046;2023-03-31T12:43:10;99185.27;;;16.06;54.73
76730;BME280;65653;53.106;18.046;2023-03-31T12:45:19;99180.19;;;16.14;55.10
76730;BME280;65653;53.106;18.046;2023-03-31T12:51:09;99176.11;;;16.28;54.84
76730;BME280;65653;53.106;18.046;2023-03-31T12:54:16;99173.09;;;16.38;55.00
76730;BME280;65653;53.106;18.046;2023-03-31T12:59:38;99166.05;;;16.38;55.23
76730;BME280;65653;53.106;18.046;2023-03-31T13:04:43;99159.02;;;16.26;55.45
76730;BME280;65653;53.106;18.046;2023-03-31T13:07:33;99157.39;;;16.04;56.13
76730;BME280;65653;53.106;18.046;2023-03-31T13:12:38;99149.55;;;15.41;57.66
76730;BME280;65653;53.106;18.046;2023-03-31T13:15:12;99147.54;;;15.13;58.36
76730;BME280;65653;53.106;18.046;2023-03-31T13:17:55;99145.05;;;14.91;59.35
76730;BME280;65653;53.106;18.046;2023-03-31T13:20:31;99147.66;;;14.72;62.09
76730;BME280;65653;53.106;18.046;2023-03-31T13:23:05;99142.45;;;13.83;72.18
76730;BME280;65653;53.106;18.046;2023-03-31T13:30:45;99134.14;;;12.25;78.12
76730;BME280;65653;53.106;18.046;2023-03-31T13:41:50;99112.23;;;12.75;78.30
76730;BME280;65653;53.106;18.046;2023-03-31T13:50:03;99097.34;;;14.00;75.77
76730;BME280;65653;53.106;18.046;2023-03-31T13:55:53;99085.34;;;16.32;71.58
76730;BME280;65653;53.106;18.046;2023-03-31T14:06:44;99053.04;;;20.52;60.40
76730;BME280;65653;53.106;18.046;2023-03-31T14:09:42;99049.02;;;20.85;58.47
76730;BME280;65653;53.106;18.046;2023-03-31T14:12:33;99047.98;;;20.84;58.31
76730;BME280;65653;53.106;18.046;2023-03-31T14:14:59;99043.80;;;20.97;56.86
76730;BME280;65653;53.106;18.046;2023-03-31T14:17:33;99051.80;;;19.94;57.78
76730;BME280;65653;53.106;18.046;2023-03-31T14:20:21;99048.45;;;18.94;58.78
76730;BME280;65653;53.106;18.046;2023-03-31T14:23:06;99046.56;;;18.19;61.57
76730;BME280;65653;53.106;18.046;2023-03-31T14:31:33;99035.14;;;16.84;64.18
76730;BME280;65653;53.106;18.046;2023-03-31T14:37:04;99028.17;;;16.16;62.32
76730;BME280;65653;53.106;18.046;2023-03-31T14:39:39;99032.06;;;15.82;64.55
76730;BME280;65653;53.106;18.046;2023-03-31T14:42:18;99032.96;;;15.57;67.15
76730;BME280;65653;53.106;18.046;2023-03-31T14:44:46;99030.19;;;15.38;67.61
76730;BME280;65653;53.106;18.046;2023-03-31T14:47:20;99027.37;;;15.18;67.62
76730;BME280;65653;53.106;18.046;2023-03-31T14:49:46;99027.08;;;14.95;67.04
76730;BME280;65653;53.106;18.046;2023-03-31T14:54:43;99022.99;;;14.48;67.26
76730;BME280;65653;53.106;18.046;2023-03-31T14:57:11;99014.86;;;14.22;68.44
76730;BME280;65653;53.106;18.046;2023-03-31T14:59:38;99007.95;;;14.03;68.46
76730;BME280;65653;53.106;18.046;2023-03-31T15:02:04;99012.30;;;13.86;69.41
76730;BME280;65653;53.106;18.046;2023-03-31T15:04:37;99015.89;;;13.62;70.64
76730;BME280;65653;53.106;18.046;2023-03-31T15:07:10;99019.25;;;13.37;72.10
76730;BME280;65653;53.106;18.046;2023-03-31T15:09:36;99024.52;;;13.18;74.37
76730;BME280;65653;53.106;18.046;2023-03-31T15:12:07;99023.28;;;13.02;75.43
76730;BME280;65653;53.106;18.046;2023-03-31T15:14:47;99027.56;;;12.84;76.20
76730;BME280;65653;53.106;18.046;2023-03-31T15:17:25;99023.45;;;12.70;77.52
76730;BME280;65653;53.106;18.046;2023-03-31T15:20:00;99019.71;;;12.59;77.49
76730;BME280;65653;53.106;18.046;2023-03-31T15:22:29;99017.34;;;12.56;77.39
76730;BME280;65653;53.106;18.046;2023-03-31T15:24:56;99015.60;;;12.54;78.13
76730;BME280;65653;53.106;18.046;2023-03-31T15:29:58;99010.61;;;12.28;78.23
76730;BME280;65653;53.106;18.046;2023-03-31T15:32:29;99006.98;;;12.15;79.06
76730;BME280;65653;53.106;18.046;2023-03-31T15:34:56;99000.53;;;11.98;79.62
76730;BME280;65653;53.106;18.046;2023-03-31T15:37:25;99005.60;;;11.85;80.15
76730;BME280;65653;53.106;18.046;2023-03-31T15:39:58;99004.92;;;11.76;81.21
76730;BME280;65653;53.106;18.046;2023-03-31T15:42:26;98996.84;;;11.65;80.89
76730;BME280;65653;53.106;18.046;2023-03-31T15:47:48;98992.78;;;11.67;80.33
76730;BME280;65653;53.106;18.046;2023-03-31T15:50:16;98989.39;;;11.91;79.72
76730;BME280;65653;53.106;18.046;2023-03-31T15:52:47;98989.19;;;12.04;78.99
76730;BME280;65653;53.106;18.046;2023-03-31T15:55:32;98988.61;;;12.07;78.66
76730;BME280;65653;53.106;18.046;2023-03-31T15:58:04;98991.37;;;12.14;78.83
76730;BME280;65653;53.106;18.046;2023-03-31T16:02:57;98990.42;;;12.30;78.85
76730;BME280;65653;53.106;18.046;2023-03-31T16:08:00;98991.27;;;12.46;79.41
76730;BME280;65653;53.106;18.046;2023-03-31T16:10:27;98989.08;;;12.39;78.92